createdAt,value
2019-05-23T00:00:37.863Z,29.33
2019-05-23T00:03:08.574Z,27.77
2019-05-23T00:05:41.429Z,27.43
2019-05-23T00:08:14.222Z,32.40
2019-05-23T00:10:53.310Z,32.97
2019-05-23T00:13:41.887Z,32.57
2019-05-23T00:16:12.295Z,25.40
2019-05-23T00:18:41.887Z,28.33
2019-05-23T00:21:11.793Z,24.13
2019-05-23T00:23:41.259Z,25.03
2019-05-23T00:26:11.709Z,30.77
2019-05-23T00:28:42.145Z,25.23
2019-05-23T00:31:24.403Z,22.73
2019-05-23T00:33:53.931Z,25.07
2019-05-23T00:36:26.120Z,27.10
2019-05-23T00:38:56.675Z,24.00
2019-05-23T00:41:26.063Z,24.23
2019-05-23T00:43:56.195Z,28.57
2019-05-23T00:46:26.254Z,26.10
2019-05-23T00:48:56.618Z,27.30
2019-05-23T00:51:26.867Z,27.27
2019-05-23T00:53:57.298Z,24.67
2019-05-23T00:56:28.637Z,28.87
2019-05-23T00:58:58.195Z,25.67
2019-05-23T01:01:28.190Z,25.93
2019-05-23T01:03:58.811Z,27.60
2019-05-23T01:06:28.325Z,28.43
2019-05-23T01:08:58.347Z,25.53
2019-05-23T01:11:28.389Z,24.63
2019-05-23T01:13:59.566Z,26.27
2019-05-23T01:16:31.451Z,24.97
2019-05-23T01:19:01.214Z,24.17
2019-05-23T01:21:47.553Z,23.23
2019-05-23T01:24:29.791Z,25.03
2019-05-23T01:27:00.087Z,25.37
2019-05-23T01:29:37.644Z,29.93
2019-05-23T01:32:12.565Z,26.47
2019-05-23T01:34:43.430Z,31.33
2019-05-23T01:37:13.790Z,31.20
2019-05-23T01:39:43.175Z,34.73
2019-05-23T01:42:13.354Z,30.80
2019-05-23T01:44:42.863Z,30.87
2019-05-23T01:47:13.042Z,32.50
2019-05-23T01:49:42.808Z,35.90
2019-05-23T01:52:13.842Z,39.23
2019-05-23T01:54:43.337Z,42.30
2019-05-23T01:57:12.863Z,36.63
2019-05-23T01:59:42.859Z,37.60
2019-05-23T02:02:13.829Z,35.17
2019-05-23T02:04:43.320Z,37.57
2019-05-23T02:07:13.675Z,36.67
2019-05-23T02:09:43.219Z,38.97
2019-05-23T02:12:13.989Z,44.73
2019-05-23T02:14:46.394Z,40.47
2019-05-23T02:17:17.164Z,43.90
2019-05-23T02:19:48.000Z,38.60
2019-05-23T02:22:17.586Z,38.03
2019-05-23T02:24:48.230Z,42.70
2019-05-23T02:27:18.108Z,39.03
2019-05-23T02:29:47.595Z,34.03
2019-05-23T02:32:18.033Z,34.77
2019-05-23T02:34:48.261Z,35.30
2019-05-23T02:37:35.142Z,31.73
2019-05-23T02:40:18.500Z,34.03
2019-05-23T02:42:54.707Z,31.57
2019-05-23T02:45:30.899Z,29.30
2019-05-23T02:48:01.395Z,29.23
2019-05-23T02:50:43.389Z,28.10
2019-05-23T02:53:16.209Z,30.73
2019-05-23T02:55:47.840Z,25.73
2019-05-23T02:58:30.427Z,28.10
2019-05-23T03:01:15.384Z,26.20
2019-05-23T03:03:46.641Z,27.57
2019-05-23T03:09:11.859Z,26.83
2019-05-23T03:11:45.708Z,25.43
2019-05-23T03:14:18.963Z,24.47
2019-05-23T03:16:52.152Z,25.43
2019-05-23T03:19:29.105Z,25.53
2019-05-23T03:22:18.856Z,26.50
2019-05-23T03:24:49.213Z,31.43
2019-05-23T03:27:20.367Z,31.43
2019-05-23T03:29:50.903Z,29.07
2019-05-23T03:32:38.327Z,26.57
2019-05-23T03:35:11.692Z,25.73
2019-05-23T03:37:42.130Z,27.00
2019-05-23T03:40:12.911Z,29.47
2019-05-23T03:42:42.547Z,28.70
2019-05-23T03:45:16.922Z,29.23
2019-05-23T03:48:07.985Z,31.47
2019-05-23T03:50:39.328Z,27.07
2019-05-23T03:53:09.041Z,33.23
2019-05-23T03:55:42.129Z,31.70
2019-05-23T03:58:12.798Z,43.70
2019-05-23T04:00:49.653Z,40.03
2019-05-23T04:03:20.676Z,38.53
2019-05-23T04:05:51.130Z,39.67
2019-05-23T04:08:20.692Z,39.70
2019-05-23T04:10:51.858Z,42.50
2019-05-23T04:13:22.375Z,40.50
2019-05-23T04:15:51.808Z,44.07
2019-05-23T04:18:21.996Z,44.97
2019-05-23T04:20:53.472Z,46.80
2019-05-23T04:23:23.231Z,43.53
2019-05-23T04:25:52.706Z,39.50
2019-05-23T04:28:22.912Z,42.50
2019-05-23T04:30:52.453Z,36.30
2019-05-23T04:33:22.404Z,34.40
2019-05-23T04:35:51.960Z,32.73
2019-05-23T04:38:21.450Z,30.10
2019-05-23T04:40:51.311Z,31.60
2019-05-23T04:43:21.170Z,33.87
2019-05-23T04:45:50.751Z,28.73
2019-05-23T04:48:20.819Z,22.17
2019-05-23T04:50:51.185Z,29.77
2019-05-23T04:53:21.157Z,28.33
2019-05-23T04:55:50.531Z,25.87
2019-05-23T04:58:20.223Z,37.73
2019-05-23T05:00:50.052Z,46.07
2019-05-23T05:03:20.345Z,30.57
2019-05-23T05:05:50.553Z,26.93
2019-05-23T05:08:20.427Z,29.27
2019-05-23T05:10:49.950Z,28.00
2019-05-23T05:13:19.996Z,44.87
2019-05-23T05:15:50.045Z,42.13
2019-05-23T05:18:21.619Z,44.47
2019-05-23T05:20:52.261Z,59.90
2019-05-23T05:23:23.234Z,72.20
2019-05-23T05:25:52.672Z,51.10
2019-05-23T05:28:22.080Z,52.30
2019-05-23T05:30:51.951Z,46.27
2019-05-23T05:33:21.808Z,44.87
2019-05-23T05:35:52.466Z,37.27
2019-05-23T05:38:22.098Z,43.20
2019-05-23T05:40:52.686Z,47.93
2019-05-23T05:43:22.210Z,50.17
2019-05-23T05:45:52.884Z,50.83
2019-05-23T05:48:24.104Z,58.67
2019-05-23T05:50:53.884Z,52.33
2019-05-23T05:53:23.445Z,104.27
2019-05-23T05:55:52.892Z,60.60
2019-05-23T05:58:22.283Z,76.27
2019-05-23T06:01:02.994Z,75.53
2019-05-23T06:03:33.746Z,76.00
2019-05-23T06:06:34.603Z,67.70
2019-05-23T06:09:13.061Z,67.17
2019-05-23T06:11:42.974Z,81.97
2019-05-23T06:14:12.729Z,80.87
2019-05-23T06:16:44.921Z,78.73
2019-05-23T06:19:14.929Z,63.13
2019-05-23T06:21:45.929Z,64.60
2019-05-23T06:24:16.324Z,63.93
2019-05-23T06:26:46.188Z,55.97
2019-05-23T06:29:15.614Z,58.73
2019-05-23T06:31:45.716Z,60.27
2019-05-23T06:34:15.260Z,64.70
2019-05-23T06:36:46.556Z,53.90
2019-05-23T06:39:16.692Z,49.73
2019-05-23T06:41:46.315Z,47.20
2019-05-23T06:44:17.289Z,44.37
2019-05-23T06:46:47.468Z,43.17
2019-05-23T06:49:16.897Z,42.37
2019-05-23T06:51:48.141Z,43.20
2019-05-23T06:54:17.709Z,47.97
2019-05-23T06:56:49.166Z,39.30
2019-05-23T06:59:19.128Z,40.63
2019-05-23T07:01:48.579Z,41.53
2019-05-23T07:04:19.267Z,30.87
2019-05-23T07:06:49.081Z,36.17
2019-05-23T07:09:20.170Z,30.00
2019-05-23T07:11:51.940Z,37.07
2019-05-23T07:14:21.394Z,40.47
2019-05-23T07:16:50.853Z,38.80
2019-05-23T07:19:21.384Z,38.47
2019-05-23T07:21:50.750Z,36.77
2019-05-23T07:24:20.514Z,38.53
2019-05-23T07:26:50.091Z,33.33
2019-05-23T07:29:19.824Z,29.20
2019-05-23T07:31:49.526Z,29.30
2019-05-23T07:34:19.869Z,34.13
2019-05-23T07:36:49.823Z,28.00
2019-05-23T07:39:20.734Z,28.87
2019-05-23T07:41:50.366Z,31.73
2019-05-23T07:44:19.801Z,25.17
2019-05-23T07:47:09.698Z,27.62
2019-05-23T07:49:39.639Z,31.07
2019-05-23T07:52:09.046Z,26.90
2019-05-23T07:54:57.495Z,21.07
2019-05-23T07:57:27.550Z,29.03
2019-05-23T07:59:57.068Z,20.73
2019-05-23T08:02:34.418Z,18.93
2019-05-23T08:05:04.495Z,30.13
2019-05-23T08:07:34.273Z,20.03
2019-05-23T08:10:04.328Z,28.00
2019-05-23T08:12:33.717Z,26.10
2019-05-23T08:15:03.634Z,27.83
2019-05-23T08:17:33.495Z,23.57
2019-05-23T08:20:02.948Z,28.50
2019-05-23T08:22:32.985Z,21.37
2019-05-23T08:25:02.512Z,25.10
2019-05-23T08:27:31.900Z,26.50
2019-05-23T08:30:02.337Z,26.03
2019-05-23T08:32:32.784Z,24.17
2019-05-23T08:35:02.638Z,21.33
2019-05-23T08:37:32.433Z,19.03
2019-05-23T08:40:01.959Z,17.03
2019-05-23T08:42:31.571Z,19.10
2019-05-23T08:45:01.910Z,17.10
2019-05-23T08:47:31.708Z,13.03
2019-05-23T08:50:01.511Z,13.97
2019-05-23T08:52:30.965Z,14.83
2019-05-23T08:55:03.708Z,14.10
2019-05-23T08:57:33.117Z,12.50
2019-05-23T09:00:03.130Z,13.03
2019-05-23T09:02:33.711Z,13.90
2019-05-23T09:05:06.251Z,17.30
2019-05-23T09:07:34.426Z,14.93
2019-05-23T09:10:04.836Z,14.90
2019-05-23T09:12:35.965Z,12.53
2019-05-23T09:15:09.550Z,18.17
2019-05-23T09:17:52.514Z,11.23
2019-05-23T09:20:09.808Z,13.17
2019-05-23T09:22:40.234Z,13.53
2019-05-23T09:25:11.090Z,13.60
2019-05-23T09:27:40.481Z,16.33
2019-05-23T09:30:11.881Z,14.80
2019-05-23T09:32:41.718Z,17.77
2019-05-23T09:35:20.989Z,13.10
2019-05-23T09:37:43.253Z,11.27
2019-05-23T09:40:12.776Z,35.80
2019-05-23T09:42:42.574Z,18.33
2019-05-23T09:45:12.147Z,18.63
2019-05-23T09:47:41.553Z,13.63
2019-05-23T09:50:18.841Z,21.10
2019-05-23T09:52:48.558Z,14.07
2019-05-23T09:55:18.480Z,14.27
2019-05-23T09:57:47.919Z,14.77
2019-05-23T10:00:20.037Z,14.80
2019-05-23T10:02:49.507Z,16.20
2019-05-23T10:05:19.106Z,11.93
2019-05-23T10:07:48.483Z,12.60
2019-05-23T10:10:19.172Z,13.30
2019-05-23T10:12:48.572Z,13.43
2019-05-23T10:15:42.897Z,11.50
2019-05-23T10:18:17.986Z,13.40
2019-05-23T10:20:47.809Z,12.67
2019-05-23T10:23:17.340Z,12.13
2019-05-23T10:25:46.938Z,12.87
2019-05-23T10:28:16.451Z,13.03
2019-05-23T10:30:45.820Z,14.33
2019-05-23T10:33:15.458Z,13.63
2019-05-23T10:35:59.177Z,15.17
2019-05-23T10:38:16.332Z,15.10
2019-05-23T10:40:45.821Z,11.53
2019-05-23T10:43:15.457Z,10.90
2019-05-23T10:45:44.895Z,11.87
2019-05-23T10:48:15.509Z,12.50
2019-05-23T10:50:45.572Z,14.20
2019-05-23T10:53:15.978Z,10.33
2019-05-23T10:55:45.566Z,18.70
2019-05-23T10:58:16.227Z,13.10
2019-05-23T11:00:47.041Z,10.63
2019-05-23T11:03:17.258Z,10.80
2019-05-23T11:05:46.978Z,11.00
2019-05-23T11:08:16.639Z,12.10
2019-05-23T11:10:46.833Z,11.10
2019-05-23T11:13:16.327Z,13.63
2019-05-23T11:15:45.709Z,18.07
2019-05-23T11:18:15.252Z,9.47
2019-05-23T11:20:44.805Z,14.17
2019-05-23T11:23:19.524Z,12.67
2019-05-23T11:25:49.098Z,14.10
2019-05-23T11:28:18.552Z,14.20
2019-05-23T11:30:56.237Z,12.43
2019-05-23T11:33:25.930Z,13.07
2019-05-23T11:35:55.563Z,10.50
2019-05-23T11:38:27.951Z,9.53
2019-05-23T11:40:58.569Z,11.77
2019-05-23T11:43:29.051Z,11.23
2019-05-23T11:46:02.114Z,11.07
2019-05-23T11:48:32.148Z,31.77
2019-05-23T11:51:01.859Z,24.90
2019-05-23T11:53:32.084Z,18.37
2019-05-23T11:56:01.534Z,14.00
2019-05-23T11:58:32.660Z,14.10
2019-05-23T12:01:20.978Z,12.30
2019-05-23T12:03:50.982Z,10.47
2019-05-23T12:06:20.863Z,13.33
2019-05-23T12:08:50.321Z,12.23
2019-05-23T12:11:19.929Z,11.40
2019-05-23T12:13:49.333Z,11.90
2019-05-23T12:16:18.920Z,9.57
2019-05-23T12:18:48.590Z,10.97
2019-05-23T12:21:18.510Z,12.93
2019-05-23T12:23:47.876Z,11.47
2019-05-23T12:26:17.361Z,10.00
2019-05-23T12:28:46.811Z,12.90
2019-05-23T12:31:16.338Z,13.53
2019-05-23T12:33:45.764Z,11.27
2019-05-23T12:36:15.856Z,11.20
2019-05-23T12:38:45.216Z,10.73
2019-05-23T12:41:15.943Z,9.33
2019-05-23T12:43:46.436Z,11.03
2019-05-23T12:46:17.683Z,10.57
2019-05-23T12:48:56.215Z,12.60
2019-05-23T12:51:28.161Z,9.63
2019-05-23T12:53:59.407Z,10.83
2019-05-23T12:56:29.665Z,12.40
2019-05-23T12:59:00.480Z,12.10
2019-05-23T13:01:30.629Z,15.73
2019-05-23T13:04:00.170Z,13.00
2019-05-23T13:06:30.122Z,10.60
2019-05-23T13:09:00.860Z,15.97
2019-05-23T13:11:30.398Z,12.90
2019-05-23T13:14:01.691Z,11.67
2019-05-23T13:16:32.930Z,10.80
2019-05-23T13:19:02.511Z,12.93
2019-05-23T13:21:31.915Z,12.43
2019-05-23T13:24:01.380Z,10.90
2019-05-23T13:26:30.748Z,11.90
2019-05-23T13:29:00.474Z,10.80
2019-05-23T13:31:31.494Z,12.07
2019-05-23T13:34:00.916Z,17.17
2019-05-23T13:36:30.244Z,14.33
2019-05-23T13:38:59.937Z,13.20
2019-05-23T13:41:29.479Z,11.33
2019-05-23T13:43:58.829Z,11.83
2019-05-23T13:46:28.602Z,11.23
2019-05-23T13:48:59.604Z,10.73
2019-05-23T13:51:30.694Z,14.20
2019-05-23T13:54:00.577Z,14.30
2019-05-23T13:56:29.917Z,13.10
2019-05-23T13:58:59.359Z,15.27
2019-05-23T14:01:28.799Z,16.03
2019-05-23T14:03:59.029Z,14.83
2019-05-23T14:06:28.454Z,12.40
2019-05-23T14:08:58.125Z,16.53
2019-05-23T14:11:29.130Z,14.97
2019-05-23T14:14:01.561Z,11.93
2019-05-23T14:16:31.369Z,16.83
2019-05-23T14:19:01.039Z,16.17
2019-05-23T14:21:34.708Z,12.73
2019-05-23T14:24:05.270Z,10.77
2019-05-23T14:26:42.813Z,14.80
2019-05-23T14:29:12.207Z,14.87
2019-05-23T14:31:48.514Z,14.07
2019-05-23T14:34:19.296Z,12.57
2019-05-23T14:37:03.783Z,14.40
2019-05-23T14:39:38.257Z,17.77
2019-05-23T14:42:29.289Z,12.13
2019-05-23T14:44:59.161Z,11.37
2019-05-23T14:47:48.951Z,9.67
2019-05-23T14:50:43.847Z,13.77
2019-05-23T14:53:15.139Z,11.80
2019-05-23T14:55:45.043Z,12.80
2019-05-23T14:58:15.090Z,13.73
2019-05-23T15:00:47.230Z,13.17
2019-05-23T15:03:17.633Z,15.33
2019-05-23T15:05:47.161Z,16.77
2019-05-23T15:08:16.682Z,11.47
2019-05-23T15:10:46.139Z,12.37
2019-05-23T15:13:15.605Z,13.53
2019-05-23T15:15:45.061Z,11.10
2019-05-23T15:18:14.667Z,14.93
2019-05-23T15:20:44.000Z,13.13
2019-05-23T15:23:13.382Z,13.03
2019-05-23T15:25:44.717Z,14.53
2019-05-23T15:28:14.283Z,14.53
2019-05-23T15:30:43.696Z,12.50
2019-05-23T15:33:13.451Z,10.50
2019-05-23T15:35:43.263Z,11.93
2019-05-23T15:38:13.905Z,14.17
2019-05-23T15:40:43.439Z,11.57
2019-05-23T15:43:12.924Z,10.20
2019-05-23T15:45:42.729Z,15.20
2019-05-23T15:48:12.322Z,12.30
2019-05-23T15:50:47.497Z,12.00
2019-05-23T15:53:36.610Z,13.30
2019-05-23T15:56:27.378Z,10.27
2019-05-23T15:58:59.079Z,13.03
2019-05-23T16:01:37.905Z,8.93
2019-05-23T16:04:14.267Z,10.33
2019-05-23T16:06:43.848Z,11.00
2019-05-23T16:09:28.693Z,11.03
2019-05-23T16:11:46.108Z,10.50
2019-05-23T16:14:16.281Z,10.20
2019-05-23T16:16:46.385Z,10.87
2019-05-23T16:19:15.790Z,12.23
2019-05-23T16:21:45.619Z,12.57
2019-05-23T16:24:15.013Z,9.67
2019-05-23T16:26:44.556Z,9.90
2019-05-23T16:29:14.612Z,12.30
2019-05-23T16:31:44.464Z,8.70
2019-05-23T16:34:14.044Z,9.57
2019-05-23T16:36:43.752Z,11.40
2019-05-23T16:39:13.302Z,9.67
2019-05-23T16:41:42.802Z,13.63
2019-05-23T16:44:12.515Z,10.23
2019-05-23T16:46:41.870Z,13.37
2019-05-23T16:49:11.529Z,10.07
2019-05-23T16:51:40.965Z,8.83
2019-05-23T16:54:11.599Z,11.67
2019-05-23T16:56:48.499Z,9.93
2019-05-23T16:59:39.726Z,8.67
2019-05-23T17:02:24.094Z,9.40
2019-05-23T17:05:17.134Z,10.43
2019-05-23T17:07:54.840Z,9.37
2019-05-23T17:10:38.749Z,9.50
2019-05-23T17:13:28.517Z,8.90
2019-05-23T17:16:05.472Z,11.30
2019-05-23T17:18:57.714Z,11.23
2019-05-23T17:21:58.637Z,11.40
2019-05-23T17:27:35.679Z,9.67
2019-05-23T17:30:14.311Z,10.33
2019-05-23T17:32:44.060Z,8.73
2019-05-23T17:35:14.085Z,11.67
2019-05-23T17:37:44.727Z,12.20
2019-05-23T17:40:24.305Z,10.23
2019-05-23T17:42:46.507Z,11.90
2019-05-23T17:45:16.032Z,11.03
2019-05-23T17:47:46.558Z,8.93
2019-05-23T17:50:15.932Z,8.87
2019-05-23T17:52:45.403Z,9.97
2019-05-23T17:55:16.056Z,10.57
2019-05-23T17:57:46.302Z,10.40
2019-05-23T18:00:18.890Z,8.57
2019-05-23T18:02:48.246Z,9.53
2019-05-23T18:05:18.187Z,10.87
2019-05-23T18:07:47.916Z,8.77
2019-05-23T18:10:18.819Z,8.70
2019-05-23T18:12:49.672Z,11.90
2019-05-23T18:15:19.059Z,11.00
2019-05-23T18:17:49.496Z,11.33
2019-05-23T18:20:19.211Z,10.57
2019-05-23T18:22:48.716Z,9.20
2019-05-23T18:25:19.523Z,11.27
2019-05-23T18:27:48.961Z,10.27
2019-05-23T18:30:29.853Z,12.40
2019-05-23T18:32:59.289Z,10.27
2019-05-23T18:38:19.585Z,12.43
2019-05-23T18:41:02.274Z,13.90
2019-05-23T18:43:20.808Z,12.20
2019-05-23T18:45:52.272Z,16.07
2019-05-23T18:48:22.069Z,13.80
2019-05-23T18:50:51.468Z,10.83
2019-05-23T18:53:21.925Z,11.57
2019-05-23T18:55:51.327Z,10.77
2019-05-23T18:58:21.473Z,12.23
2019-05-23T19:01:05.750Z,12.93
2019-05-23T19:03:35.864Z,10.87
2019-05-23T19:06:05.803Z,13.20
2019-05-23T19:08:35.861Z,12.87
2019-05-23T19:11:19.584Z,9.97
2019-05-23T19:13:37.355Z,11.77
2019-05-23T19:16:07.920Z,11.27
2019-05-23T19:18:38.037Z,12.00
2019-05-23T19:21:08.342Z,14.17
2019-05-23T19:23:39.926Z,13.47
2019-05-23T19:26:10.147Z,11.83
2019-05-23T19:28:40.460Z,13.23
2019-05-23T19:31:10.097Z,10.67
2019-05-23T19:33:40.475Z,10.90
2019-05-23T19:36:11.846Z,12.07
2019-05-23T19:38:41.815Z,12.37
2019-05-23T19:41:12.380Z,10.67
2019-05-23T19:43:42.487Z,10.17
2019-05-23T19:46:13.020Z,10.73
2019-05-23T19:48:45.007Z,11.93
2019-05-23T19:51:14.594Z,12.33
2019-05-23T19:53:45.779Z,14.07
2019-05-23T19:56:15.440Z,13.20
2019-05-23T19:58:45.458Z,11.40
2019-05-23T20:01:16.075Z,13.33
2019-05-23T20:04:07.239Z,13.93
2019-05-23T20:06:36.715Z,13.90
2019-05-23T20:09:10.462Z,14.77
2019-05-23T20:11:53.293Z,13.57
2019-05-23T20:14:11.656Z,12.33
2019-05-23T20:16:41.153Z,16.47
2019-05-23T20:19:11.138Z,12.47
2019-05-23T20:21:40.713Z,12.97
2019-05-23T20:24:10.528Z,12.90
2019-05-23T20:26:40.156Z,14.77
2019-05-23T20:29:09.601Z,13.97
2019-05-23T20:31:39.181Z,14.87
2019-05-23T20:34:08.990Z,14.17
2019-05-23T20:36:38.453Z,12.23
2019-05-23T20:39:08.047Z,14.37
2019-05-23T20:41:38.844Z,14.43
2019-05-23T20:44:08.673Z,15.37
2019-05-23T20:46:38.500Z,14.13
2019-05-23T20:49:08.203Z,13.87
2019-05-23T20:51:38.080Z,15.50
2019-05-23T20:54:07.439Z,14.40
2019-05-23T20:56:37.261Z,16.03
2019-05-23T20:59:07.072Z,18.87
2019-05-23T21:01:39.582Z,16.60
2019-05-23T21:04:08.990Z,15.50
2019-05-23T21:06:38.444Z,13.87
2019-05-23T21:09:08.808Z,15.23
2019-05-23T21:11:38.321Z,14.37
2019-05-23T21:14:07.928Z,16.80
2019-05-23T21:16:37.271Z,15.87
2019-05-23T21:19:06.718Z,18.83
2019-05-23T21:21:36.221Z,18.60
2019-05-23T21:24:06.818Z,15.63
2019-05-23T21:26:36.273Z,20.03
2019-05-23T21:29:05.603Z,17.53
2019-05-23T21:31:34.930Z,16.67
2019-05-23T21:34:04.441Z,15.43
2019-05-23T21:36:33.802Z,18.27
2019-05-23T21:39:03.284Z,19.47
2019-05-23T21:41:32.656Z,19.17
2019-05-23T21:44:02.038Z,23.20
2019-05-23T21:46:31.641Z,19.20
2019-05-23T21:49:01.033Z,19.27
2019-05-23T21:51:30.495Z,19.13
2019-05-23T21:53:59.852Z,20.23
2019-05-23T21:56:29.278Z,21.13
2019-05-23T21:58:58.729Z,19.63
2019-05-23T22:01:42.974Z,20.40
2019-05-23T22:04:31.441Z,18.50
2019-05-23T22:07:05.805Z,20.13
2019-05-23T22:09:35.402Z,20.90
2019-05-23T22:12:06.050Z,18.57
2019-05-23T22:14:36.419Z,24.27
2019-05-23T22:17:05.807Z,21.83
2019-05-23T22:19:35.193Z,22.60
2019-05-23T22:22:04.984Z,25.67
2019-05-23T22:24:34.454Z,25.80
2019-05-23T22:27:05.979Z,25.30
2019-05-23T22:29:35.385Z,28.53
2019-05-23T22:32:05.357Z,27.20
2019-05-23T22:34:59.935Z,30.03
2019-05-23T22:37:30.812Z,31.33
2019-05-23T22:40:00.322Z,27.97
2019-05-23T22:42:30.824Z,27.60
2019-05-23T22:45:00.291Z,27.67
2019-05-23T22:47:29.879Z,31.47
2019-05-23T22:49:59.264Z,26.07
2019-05-23T22:52:28.630Z,27.83
2019-05-23T22:54:58.019Z,25.83
2019-05-23T22:57:27.512Z,26.80
2019-05-23T22:59:56.870Z,28.13
2019-05-23T23:02:26.266Z,27.77
2019-05-23T23:04:56.422Z,26.10
2019-05-23T23:07:25.924Z,30.20
2019-05-23T23:09:55.338Z,32.20
2019-05-23T23:12:24.840Z,28.40
2019-05-23T23:14:54.283Z,28.60
2019-05-23T23:17:23.849Z,27.20
2019-05-23T23:19:53.701Z,29.47
2019-05-23T23:22:23.124Z,29.33
2019-05-23T23:24:52.506Z,23.33
2019-05-23T23:27:21.958Z,28.33
2019-05-23T23:29:51.477Z,25.80
2019-05-23T23:32:21.467Z,24.10
2019-05-23T23:34:51.010Z,23.80
2019-05-23T23:37:20.460Z,23.10
2019-05-23T23:39:49.876Z,24.20
2019-05-23T23:42:19.295Z,23.70
2019-05-23T23:44:47.756Z,27.97
2019-05-23T23:47:34.804Z,23.73
2019-05-23T23:50:21.855Z,26.90
2019-05-23T23:53:09.027Z,29.67
2019-05-23T23:55:56.034Z,32.90
2019-05-23T23:58:24.553Z,29.80
